sensor_id;sensor_type;location;lat;lon;timestamp;P1;durP1;ratioP1;P2;durP2;ratioP2
21158;SDS011;10737;45.436;4.390;2023-04-06T00:04:49;12.63;;;10.75;;
21158;SDS011;10737;45.436;4.390;2023-04-06T00:09:52;11.32;;;9.75;;
21158;SDS011;10737;45.436;4.390;2023-04-06T00:14:56;13.10;;;9.25;;
21158;SDS011;10737;45.436;4.390;2023-04-06T00:19:59;9.90;;;8.82;;
21158;SDS011;10737;45.436;4.390;2023-04-06T00:25:03;9.20;;;7.53;;
21158;SDS011;10737;45.436;4.390;2023-04-06T00:30:08;9.32;;;8.40;;
21158;SDS011;10737;45.436;4.390;2023-04-06T00:35:11;9.18;;;7.85;;
21158;SDS011;10737;45.436;4.390;2023-04-06T00:40:14;10.80;;;7.85;;
21158;SDS011;10737;45.436;4.390;2023-04-06T00:45:19;7.32;;;6.53;;
21158;SDS011;10737;45.436;4.390;2023-04-06T00:50:22;7.90;;;7.20;;
21158;SDS011;10737;45.436;4.390;2023-04-06T00:55:26;8.77;;;6.93;;
21158;SDS011;10737;45.436;4.390;2023-04-06T01:00:32;8.20;;;7.32;;
21158;SDS011;10737;45.436;4.390;2023-04-06T01:05:37;8.40;;;7.15;;
21158;SDS011;10737;45.436;4.390;2023-04-06T01:10:48;7.60;;;6.80;;
21158;SDS011;10737;45.436;4.390;2023-04-06T01:16:00;7.28;;;6.57;;
21158;SDS011;10737;45.436;4.390;2023-04-06T01:21:20;7.78;;;6.97;;
21158;SDS011;10737;45.436;4.390;2023-04-06T01:26:50;8.65;;;7.30;;
21158;SDS011;10737;45.436;4.390;2023-04-06T01:31:54;8.40;;;6.68;;
21158;SDS011;10737;45.436;4.390;2023-04-06T01:36:58;8.48;;;7.10;;
21158;SDS011;10737;45.436;4.390;2023-04-06T01:42:06;9.50;;;7.60;;
21158;SDS011;10737;45.436;4.390;2023-04-06T01:47:11;8.20;;;7.40;;
21158;SDS011;10737;45.436;4.390;2023-04-06T01:52:15;7.82;;;7.05;;
21158;SDS011;10737;45.436;4.390;2023-04-06T01:57:27;9.63;;;8.30;;
21158;SDS011;10737;45.436;4.390;2023-04-06T02:02:39;11.00;;;7.38;;
21158;SDS011;10737;45.436;4.390;2023-04-06T02:07:50;7.85;;;7.05;;
21158;SDS011;10737;45.436;4.390;2023-04-06T02:13:03;8.25;;;7.45;;
21158;SDS011;10737;45.436;4.390;2023-04-06T02:18:11;8.50;;;7.13;;
21158;SDS011;10737;45.436;4.390;2023-04-06T02:23:15;9.25;;;8.00;;
21158;SDS011;10737;45.436;4.390;2023-04-06T02:28:19;8.35;;;7.40;;
21158;SDS011;10737;45.436;4.390;2023-04-06T02:33:23;8.50;;;7.55;;
21158;SDS011;10737;45.436;4.390;2023-04-06T02:38:26;11.13;;;8.13;;
21158;SDS011;10737;45.436;4.390;2023-04-06T02:43:31;10.90;;;8.20;;
21158;SDS011;10737;45.436;4.390;2023-04-06T02:48:43;8.07;;;7.18;;
21158;SDS011;10737;45.436;4.390;2023-04-06T02:53:48;7.97;;;6.97;;
21158;SDS011;10737;45.436;4.390;2023-04-06T02:58:57;7.13;;;6.20;;
21158;SDS011;10737;45.436;4.390;2023-04-06T03:04:04;7.90;;;7.10;;
21158;SDS011;10737;45.436;4.390;2023-04-06T03:09:07;7.97;;;7.18;;
21158;SDS011;10737;45.436;4.390;2023-04-06T03:14:12;9.27;;;8.35;;
21158;SDS011;10737;45.436;4.390;2023-04-06T03:19:16;7.95;;;7.15;;
21158;SDS011;10737;45.436;4.390;2023-04-06T03:24:19;8.48;;;7.65;;
21158;SDS011;10737;45.436;4.390;2023-04-06T03:29:24;7.70;;;6.93;;
21158;SDS011;10737;45.436;4.390;2023-04-06T03:34:27;7.82;;;7.07;;
21158;SDS011;10737;45.436;4.390;2023-04-06T03:39:31;8.45;;;7.13;;
21158;SDS011;10737;45.436;4.390;2023-04-06T03:44:36;9.05;;;7.03;;
21158;SDS011;10737;45.436;4.390;2023-04-06T03:49:40;7.07;;;6.40;;
21158;SDS011;10737;45.436;4.390;2023-04-06T03:54:46;8.70;;;7.32;;
21158;SDS011;10737;45.436;4.390;2023-04-06T03:59:50;8.32;;;7.03;;
21158;SDS011;10737;45.436;4.390;2023-04-06T04:04:54;8.25;;;7.45;;
21158;SDS011;10737;45.436;4.390;2023-04-06T04:09:57;6.45;;;5.85;;
21158;SDS011;10737;45.436;4.390;2023-04-06T04:15:02;8.80;;;6.97;;
21158;SDS011;10737;45.436;4.390;2023-04-06T04:20:06;8.43;;;6.45;;
21158;SDS011;10737;45.436;4.390;2023-04-06T04:25:09;7.47;;;6.55;;
21158;SDS011;10737;45.436;4.390;2023-04-06T04:30:20;7.95;;;7.15;;
21158;SDS011;10737;45.436;4.390;2023-04-06T04:35:23;7.70;;;6.80;;
21158;SDS011;10737;45.436;4.390;2023-04-06T04:40:26;9.50;;;7.53;;
21158;SDS011;10737;45.436;4.390;2023-04-06T04:45:39;13.07;;;8.43;;
21158;SDS011;10737;45.436;4.390;2023-04-06T04:50:52;9.63;;;7.65;;
21158;SDS011;10737;45.436;4.390;2023-04-06T04:56:00;8.48;;;7.57;;
21158;SDS011;10737;45.436;4.390;2023-04-06T05:01:05;9.05;;;6.93;;
21158;SDS011;10737;45.436;4.390;2023-04-06T05:06:08;8.75;;;6.90;;
21158;SDS011;10737;45.436;4.390;2023-04-06T05:11:14;15.18;;;7.72;;
21158;SDS011;10737;45.436;4.390;2023-04-06T05:16:24;10.25;;;7.32;;
21158;SDS011;10737;45.436;4.390;2023-04-06T05:21:27;8.05;;;6.82;;
21158;SDS011;10737;45.436;4.390;2023-04-06T05:26:35;7.97;;;7.18;;
21158;SDS011;10737;45.436;4.390;2023-04-06T05:31:46;10.02;;;7.45;;
21158;SDS011;10737;45.436;4.390;2023-04-06T05:36:50;8.60;;;7.03;;
21158;SDS011;10737;45.436;4.390;2023-04-06T05:41:56;10.02;;;7.43;;
21158;SDS011;10737;45.436;4.390;2023-04-06T05:47:11;9.18;;;7.72;;
21158;SDS011;10737;45.436;4.390;2023-04-06T05:52:15;8.48;;;7.28;;
21158;SDS011;10737;45.436;4.390;2023-04-06T05:57:21;10.68;;;6.30;;
21158;SDS011;10737;45.436;4.390;2023-04-06T06:02:26;8.20;;;7.18;;
21158;SDS011;10737;45.436;4.390;2023-04-06T06:07:30;10.13;;;7.22;;
21158;SDS011;10737;45.436;4.390;2023-04-06T06:12:36;10.43;;;7.95;;
21158;SDS011;10737;45.436;4.390;2023-04-06T06:17:41;9.70;;;8.35;;
21158;SDS011;10737;45.436;4.390;2023-04-06T06:22:45;13.80;;;8.75;;
21158;SDS011;10737;45.436;4.390;2023-04-06T06:27:52;8.60;;;7.60;;
21158;SDS011;10737;45.436;4.390;2023-04-06T06:32:57;10.05;;;8.98;;
21158;SDS011;10737;45.436;4.390;2023-04-06T06:38:01;9.90;;;7.78;;
21158;SDS011;10737;45.436;4.390;2023-04-06T06:43:06;21.23;;;8.13;;
21158;SDS011;10737;45.436;4.390;2023-04-06T06:48:22;11.13;;;8.15;;
21158;SDS011;10737;45.436;4.390;2023-04-06T06:53:25;11.93;;;8.55;;
21158;SDS011;10737;45.436;4.390;2023-04-06T06:58:30;10.85;;;8.65;;
21158;SDS011;10737;45.436;4.390;2023-04-06T07:03:35;18.17;;;9.52;;
21158;SDS011;10737;45.436;4.390;2023-04-06T07:08:39;9.55;;;8.48;;
21158;SDS011;10737;45.436;4.390;2023-04-06T07:13:42;16.58;;;10.55;;
21158;SDS011;10737;45.436;4.390;2023-04-06T07:18:47;9.00;;;7.95;;
21158;SDS011;10737;45.436;4.390;2023-04-06T07:23:51;15.73;;;9.95;;
21158;SDS011;10737;45.436;4.390;2023-04-06T07:28:54;12.73;;;8.70;;
21158;SDS011;10737;45.436;4.390;2023-04-06T07:34:00;14.90;;;8.80;;
21158;SDS011;10737;45.436;4.390;2023-04-06T07:39:03;9.07;;;7.75;;
21158;SDS011;10737;45.436;4.390;2023-04-06T07:44:08;14.63;;;10.93;;
21158;SDS011;10737;45.436;4.390;2023-04-06T07:49:14;10.38;;;8.52;;
21158;SDS011;10737;45.436;4.390;2023-04-06T07:54:18;10.18;;;7.88;;
21158;SDS011;10737;45.436;4.390;2023-04-06T07:59:21;8.80;;;7.90;;
21158;SDS011;10737;45.436;4.390;2023-04-06T08:04:26;11.00;;;8.10;;
21158;SDS011;10737;45.436;4.390;2023-04-06T08:09:29;10.70;;;8.23;;
21158;SDS011;10737;45.436;4.390;2023-04-06T08:14:32;10.50;;;8.05;;
21158;SDS011;10737;45.436;4.390;2023-04-06T08:19:37;12.02;;;7.50;;
21158;SDS011;10737;45.436;4.390;2023-04-06T08:24:40;8.60;;;6.97;;
21158;SDS011;10737;45.436;4.390;2023-04-06T08:29:43;6.57;;;5.80;;
21158;SDS011;10737;45.436;4.390;2023-04-06T08:34:48;8.48;;;6.18;;
21158;SDS011;10737;45.436;4.390;2023-04-06T08:39:51;6.88;;;6.25;;
21158;SDS011;10737;45.436;4.390;2023-04-06T08:44:54;10.75;;;6.55;;
21158;SDS011;10737;45.436;4.390;2023-04-06T08:49:59;9.32;;;7.15;;
21158;SDS011;10737;45.436;4.390;2023-04-06T08:55:05;10.38;;;5.65;;
21158;SDS011;10737;45.436;4.390;2023-04-06T09:00:09;8.07;;;6.47;;
21158;SDS011;10737;45.436;4.390;2023-04-06T09:05:14;21.02;;;16.02;;
21158;SDS011;10737;45.436;4.390;2023-04-06T09:10:18;8.82;;;7.88;;
21158;SDS011;10737;45.436;4.390;2023-04-06T09:15:22;9.57;;;6.88;;
21158;SDS011;10737;45.436;4.390;2023-04-06T09:20:27;10.05;;;6.65;;
21158;SDS011;10737;45.436;4.390;2023-04-06T09:25:30;29.90;;;19.55;;
21158;SDS011;10737;45.436;4.390;2023-04-06T09:30:34;8.25;;;6.82;;
21158;SDS011;10737;45.436;4.390;2023-04-06T09:35:39;10.32;;;8.10;;
21158;SDS011;10737;45.436;4.390;2023-04-06T09:40:49;31.13;;;26.88;;
21158;SDS011;10737;45.436;4.390;2023-04-06T09:46:00;25.23;;;18.10;;
21158;SDS011;10737;45.436;4.390;2023-04-06T09:51:07;14.32;;;11.20;;
21158;SDS011;10737;45.436;4.390;2023-04-06T09:56:12;8.82;;;6.97;;
21158;SDS011;10737;45.436;4.390;2023-04-06T10:01:20;18.58;;;12.52;;
21158;SDS011;10737;45.436;4.390;2023-04-06T10:06:27;8.07;;;7.22;;
21158;SDS011;10737;45.436;4.390;2023-04-06T10:11:31;8.73;;;7.38;;
21158;SDS011;10737;45.436;4.390;2023-04-06T10:16:34;8.98;;;7.32;;
21158;SDS011;10737;45.436;4.390;2023-04-06T10:21:39;7.03;;;6.18;;
21158;SDS011;10737;45.436;4.390;2023-04-06T10:26:54;13.63;;;12.18;;
21158;SDS011;10737;45.436;4.390;2023-04-06T10:31:59;8.23;;;7.43;;
21158;SDS011;10737;45.436;4.390;2023-04-06T10:37:11;40.40;;;28.90;;
21158;SDS011;10737;45.436;4.390;2023-04-06T10:42:15;9.10;;;8.18;;
21158;SDS011;10737;45.436;4.390;2023-04-06T10:47:18;29.02;;;25.80;;
21158;SDS011;10737;45.436;4.390;2023-04-06T10:52:23;33.33;;;27.63;;
21158;SDS011;10737;45.436;4.390;2023-04-06T10:57:27;9.88;;;7.30;;
21158;SDS011;10737;45.436;4.390;2023-04-06T11:02:30;11.35;;;8.45;;
21158;SDS011;10737;45.436;4.390;2023-04-06T11:07:35;10.60;;;7.97;;
21158;SDS011;10737;45.436;4.390;2023-04-06T11:12:38;11.82;;;9.40;;
21158;SDS011;10737;45.436;4.390;2023-04-06T11:17:41;14.98;;;8.50;;
21158;SDS011;10737;45.436;4.390;2023-04-06T11:22:51;20.48;;;14.50;;
21158;SDS011;10737;45.436;4.390;2023-04-06T11:27:54;31.38;;;13.63;;
21158;SDS011;10737;45.436;4.390;2023-04-06T11:33:00;5.88;;;5.35;;
21158;SDS011;10737;45.436;4.390;2023-04-06T11:38:05;12.07;;;8.63;;
21158;SDS011;10737;45.436;4.390;2023-04-06T11:43:10;7.15;;;6.30;;
21158;SDS011;10737;45.436;4.390;2023-04-06T11:48:17;9.90;;;6.95;;
21158;SDS011;10737;45.436;4.390;2023-04-06T11:53:22;5.60;;;5.05;;
21158;SDS011;10737;45.436;4.390;2023-04-06T11:58:25;6.38;;;5.18;;
21158;SDS011;10737;45.436;4.390;2023-04-06T12:03:29;4.80;;;4.20;;
21158;SDS011;10737;45.436;4.390;2023-04-06T12:08:34;5.10;;;4.60;;
21158;SDS011;10737;45.436;4.390;2023-04-06T12:13:37;18.67;;;14.70;;
21158;SDS011;10737;45.436;4.390;2023-04-06T12:18:40;13.23;;;8.05;;
21158;SDS011;10737;45.436;4.390;2023-04-06T12:23:45;5.65;;;5.15;;
21158;SDS011;10737;45.436;4.390;2023-04-06T12:28:48;4.82;;;4.53;;
21158;SDS011;10737;45.436;4.390;2023-04-06T12:33:52;6.00;;;4.65;;
21158;SDS011;10737;45.436;4.390;2023-04-06T12:38:57;5.63;;;5.13;;
21158;SDS011;10737;45.436;4.390;2023-04-06T12:44:00;5.18;;;4.68;;
21158;SDS011;10737;45.436;4.390;2023-04-06T12:49:03;6.13;;;5.53;;
21158;SDS011;10737;45.436;4.390;2023-04-06T12:54:08;6.32;;;5.82;;
21158;SDS011;10737;45.436;4.390;2023-04-06T12:59:12;7.13;;;6.43;;
21158;SDS011;10737;45.436;4.390;2023-04-06T13:04:16;8.23;;;7.13;;
21158;SDS011;10737;45.436;4.390;2023-04-06T13:09:20;29.40;;;15.25;;
21158;SDS011;10737;45.436;4.390;2023-04-06T13:14:24;14.70;;;11.00;;
21158;SDS011;10737;45.436;4.390;2023-04-06T13:19:27;6.10;;;5.55;;
21158;SDS011;10737;45.436;4.390;2023-04-06T13:24:32;5.28;;;4.78;;
21158;SDS011;10737;45.436;4.390;2023-04-06T13:29:36;5.20;;;4.80;;
21158;SDS011;10737;45.436;4.390;2023-04-06T13:34:39;5.03;;;4.45;;
21158;SDS011;10737;45.436;4.390;2023-04-06T13:39:48;6.40;;;5.22;;
21158;SDS011;10737;45.436;4.390;2023-04-06T13:44:51;4.68;;;4.28;;
21158;SDS011;10737;45.436;4.390;2023-04-06T13:49:55;6.20;;;5.20;;
21158;SDS011;10737;45.436;4.390;2023-04-06T13:54:59;5.18;;;4.78;;
21158;SDS011;10737;45.436;4.390;2023-04-06T14:00:04;5.30;;;4.90;;
21158;SDS011;10737;45.436;4.390;2023-04-06T14:05:08;7.10;;;6.38;;
21158;SDS011;10737;45.436;4.390;2023-04-06T14:10:13;9.07;;;8.18;;
21158;SDS011;10737;45.436;4.390;2023-04-06T14:15:16;20.35;;;15.32;;
21158;SDS011;10737;45.436;4.390;2023-04-06T14:20:21;6.45;;;4.43;;
21158;SDS011;10737;45.436;4.390;2023-04-06T14:25:26;6.07;;;5.38;;
21158;SDS011;10737;45.436;4.390;2023-04-06T14:30:29;5.75;;;4.50;;
21158;SDS011;10737;45.436;4.390;2023-04-06T14:35:32;6.30;;;5.32;;
21158;SDS011;10737;45.436;4.390;2023-04-06T14:40:37;5.40;;;4.90;;
21158;SDS011;10737;45.436;4.390;2023-04-06T14:45:40;5.97;;;4.43;;
21158;SDS011;10737;45.436;4.390;2023-04-06T14:50:51;7.15;;;5.18;;
21158;SDS011;10737;45.436;4.390;2023-04-06T14:55:56;5.20;;;4.55;;
21158;SDS011;10737;45.436;4.390;2023-04-06T15:00:59;13.85;;;10.77;;
21158;SDS011;10737;45.436;4.390;2023-04-06T15:06:03;5.07;;;4.57;;
21158;SDS011;10737;45.436;4.390;2023-04-06T15:11:08;4.32;;;4.03;;
21158;SDS011;10737;45.436;4.390;2023-04-06T15:16:11;5.10;;;4.47;;
21158;SDS011;10737;45.436;4.390;2023-04-06T15:21:16;5.35;;;4.85;;
21158;SDS011;10737;45.436;4.390;2023-04-06T15:26:23;4.65;;;4.25;;
21158;SDS011;10737;45.436;4.390;2023-04-06T15:31:28;13.23;;;10.95;;
21158;SDS011;10737;45.436;4.390;2023-04-06T15:36:37;6.70;;;6.10;;
21158;SDS011;10737;45.436;4.390;2023-04-06T15:41:42;26.38;;;22.63;;
21158;SDS011;10737;45.436;4.390;2023-04-06T15:46:45;4.90;;;4.20;;
21158;SDS011;10737;45.436;4.390;2023-04-06T15:51:48;6.18;;;4.50;;
21158;SDS011;10737;45.436;4.390;2023-04-06T15:56:53;7.07;;;6.38;;
21158;SDS011;10737;45.436;4.390;2023-04-06T16:01:57;6.47;;;5.63;;
21158;SDS011;10737;45.436;4.390;2023-04-06T16:07:01;6.75;;;4.88;;
21158;SDS011;10737;45.436;4.390;2023-04-06T16:12:06;7.15;;;6.35;;
21158;SDS011;10737;45.436;4.390;2023-04-06T16:17:10;4.72;;;4.32;;
21158;SDS011;10737;45.436;4.390;2023-04-06T16:22:13;5.20;;;4.70;;
21158;SDS011;10737;45.436;4.390;2023-04-06T16:27:18;33.05;;;21.92;;
21158;SDS011;10737;45.436;4.390;2023-04-06T16:32:21;9.82;;;6.90;;
21158;SDS011;10737;45.436;4.390;2023-04-06T16:37:25;7.90;;;6.05;;
21158;SDS011;10737;45.436;4.390;2023-04-06T16:42:31;6.70;;;4.80;;
21158;SDS011;10737;45.436;4.390;2023-04-06T16:47:35;8.10;;;7.20;;
21158;SDS011;10737;45.436;4.390;2023-04-06T16:52:38;8.82;;;5.50;;
21158;SDS011;10737;45.436;4.390;2023-04-06T16:57:44;5.45;;;4.93;;
21158;SDS011;10737;45.436;4.390;2023-04-06T17:02:50;11.88;;;9.15;;
21158;SDS011;10737;45.436;4.390;2023-04-06T17:07:53;13.52;;;9.93;;
21158;SDS011;10737;45.436;4.390;2023-04-06T17:12:58;9.20;;;7.57;;
21158;SDS011;10737;45.436;4.390;2023-04-06T17:18:01;15.43;;;12.35;;
21158;SDS011;10737;45.436;4.390;2023-04-06T17:23:05;6.80;;;5.80;;
21158;SDS011;10737;45.436;4.390;2023-04-06T17:28:09;29.73;;;23.23;;
21158;SDS011;10737;45.436;4.390;2023-04-06T17:33:13;7.65;;;6.85;;
21158;SDS011;10737;45.436;4.390;2023-04-06T17:38:16;10.98;;;8.90;;
21158;SDS011;10737;45.436;4.390;2023-04-06T17:43:22;19.67;;;15.40;;
21158;SDS011;10737;45.436;4.390;2023-04-06T17:48:26;28.67;;;20.98;;
21158;SDS011;10737;45.436;4.390;2023-04-06T17:53:30;18.45;;;13.63;;
21158;SDS011;10737;45.436;4.390;2023-04-06T17:58:36;22.63;;;17.27;;
21158;SDS011;10737;45.436;4.390;2023-04-06T18:03:40;32.58;;;23.15;;
21158;SDS011;10737;45.436;4.390;2023-04-06T18:08:43;21.83;;;14.65;;
21158;SDS011;10737;45.436;4.390;2023-04-06T18:13:48;21.20;;;12.90;;
21158;SDS011;10737;45.436;4.390;2023-04-06T18:18:51;25.83;;;18.80;;
21158;SDS011;10737;45.436;4.390;2023-04-06T18:23:55;13.15;;;9.30;;
21158;SDS011;10737;45.436;4.390;2023-04-06T18:29:00;19.20;;;14.30;;
21158;SDS011;10737;45.436;4.390;2023-04-06T18:34:04;17.70;;;10.50;;
21158;SDS011;10737;45.436;4.390;2023-04-06T18:39:07;16.45;;;11.82;;
21158;SDS011;10737;45.436;4.390;2023-04-06T18:44:11;24.98;;;17.90;;
21158;SDS011;10737;45.436;4.390;2023-04-06T18:49:15;15.13;;;11.27;;
21158;SDS011;10737;45.436;4.390;2023-04-06T18:54:18;32.75;;;25.90;;
21158;SDS011;10737;45.436;4.390;2023-04-06T18:59:23;35.40;;;21.90;;
21158;SDS011;10737;45.436;4.390;2023-04-06T19:04:31;20.75;;;13.20;;
21158;SDS011;10737;45.436;4.390;2023-04-06T19:09:34;40.65;;;28.70;;
21158;SDS011;10737;45.436;4.390;2023-04-06T19:14:39;41.22;;;31.98;;
21158;SDS011;10737;45.436;4.390;2023-04-06T19:19:45;18.70;;;14.52;;
21158;SDS011;10737;45.436;4.390;2023-04-06T19:24:51;38.65;;;27.00;;
21158;SDS011;10737;45.436;4.390;2023-04-06T19:29:56;54.78;;;40.55;;
21158;SDS011;10737;45.436;4.390;2023-04-06T19:35:00;72.20;;;53.85;;
21158;SDS011;10737;45.436;4.390;2023-04-06T19:40:07;47.80;;;37.55;;
21158;SDS011;10737;45.436;4.390;2023-04-06T19:45:12;135.85;;;95.00;;
21158;SDS011;10737;45.436;4.390;2023-04-06T19:50:16;41.42;;;30.60;;
21158;SDS011;10737;45.436;4.390;2023-04-06T19:55:19;38.63;;;29.23;;
21158;SDS011;10737;45.436;4.390;2023-04-06T20:00:24;102.43;;;73.45;;
21158;SDS011;10737;45.436;4.390;2023-04-06T20:05:27;38.05;;;29.48;;
21158;SDS011;10737;45.436;4.390;2023-04-06T20:10:30;46.08;;;32.83;;
21158;SDS011;10737;45.436;4.390;2023-04-06T20:15:35;39.78;;;32.45;;
21158;SDS011;10737;45.436;4.390;2023-04-06T20:20:39;38.78;;;30.00;;
21158;SDS011;10737;45.436;4.390;2023-04-06T20:25:42;71.57;;;49.53;;
21158;SDS011;10737;45.436;4.390;2023-04-06T20:30:50;70.10;;;48.30;;
21158;SDS011;10737;45.436;4.390;2023-04-06T20:35:56;44.92;;;30.27;;
21158;SDS011;10737;45.436;4.390;2023-04-06T20:41:00;32.45;;;26.15;;
21158;SDS011;10737;45.436;4.390;2023-04-06T20:46:05;44.83;;;30.90;;
21158;SDS011;10737;45.436;4.390;2023-04-06T20:51:16;37.05;;;28.70;;
21158;SDS011;10737;45.436;4.390;2023-04-06T20:56:20;44.13;;;33.17;;
21158;SDS011;10737;45.436;4.390;2023-04-06T21:01:25;66.45;;;43.30;;
21158;SDS011;10737;45.436;4.390;2023-04-06T21:06:30;49.33;;;35.25;;
21158;SDS011;10737;45.436;4.390;2023-04-06T21:11:34;103.55;;;73.55;;
21158;SDS011;10737;45.436;4.390;2023-04-06T21:16:38;122.15;;;79.13;;
21158;SDS011;10737;45.436;4.390;2023-04-06T21:21:41;53.80;;;38.40;;
21158;SDS011;10737;45.436;4.390;2023-04-06T21:26:45;83.47;;;54.55;;
21158;SDS011;10737;45.436;4.390;2023-04-06T21:31:55;59.10;;;40.42;;
21158;SDS011;10737;45.436;4.390;2023-04-06T21:36:58;40.53;;;30.38;;
21158;SDS011;10737;45.436;4.390;2023-04-06T21:42:03;43.72;;;29.23;;
21158;SDS011;10737;45.436;4.390;2023-04-06T21:47:14;57.20;;;39.97;;
21158;SDS011;10737;45.436;4.390;2023-04-06T21:52:23;69.18;;;49.83;;
21158;SDS011;10737;45.436;4.390;2023-04-06T21:57:26;73.57;;;40.00;;
21158;SDS011;10737;45.436;4.390;2023-04-06T22:02:31;45.55;;;32.83;;
21158;SDS011;10737;45.436;4.390;2023-04-06T22:07:34;59.63;;;42.60;;
21158;SDS011;10737;45.436;4.390;2023-04-06T22:12:38;35.72;;;27.00;;
21158;SDS011;10737;45.436;4.390;2023-04-06T22:17:42;39.83;;;27.33;;
21158;SDS011;10737;45.436;4.390;2023-04-06T22:22:46;31.52;;;20.30;;
21158;SDS011;10737;45.436;4.390;2023-04-06T22:27:49;24.55;;;17.73;;
21158;SDS011;10737;45.436;4.390;2023-04-06T22:32:54;29.17;;;18.73;;
21158;SDS011;10737;45.436;4.390;2023-04-06T22:37:58;19.45;;;14.88;;
21158;SDS011;10737;45.436;4.390;2023-04-06T22:43:02;11.85;;;9.95;;
21158;SDS011;10737;45.436;4.390;2023-04-06T22:48:09;24.98;;;17.52;;
21158;SDS011;10737;45.436;4.390;2023-04-06T22:53:12;46.08;;;27.35;;
21158;SDS011;10737;45.436;4.390;2023-04-06T22:58:16;20.38;;;13.90;;
21158;SDS011;10737;45.436;4.390;2023-04-06T23:03:20;19.23;;;12.80;;
21158;SDS011;10737;45.436;4.390;2023-04-06T23:08:24;15.93;;;13.98;;
21158;SDS011;10737;45.436;4.390;2023-04-06T23:13:27;14.48;;;11.40;;
21158;SDS011;10737;45.436;4.390;2023-04-06T23:18:31;14.48;;;11.30;;
21158;SDS011;10737;45.436;4.390;2023-04-06T23:23:35;20.60;;;13.55;;
21158;SDS011;10737;45.436;4.390;2023-04-06T23:28:38;46.03;;;33.70;;
21158;SDS011;10737;45.436;4.390;2023-04-06T23:33:43;19.38;;;12.05;;
21158;SDS011;10737;45.436;4.390;2023-04-06T23:38:46;13.48;;;11.07;;
21158;SDS011;10737;45.436;4.390;2023-04-06T23:43:49;9.35;;;7.28;;
21158;SDS011;10737;45.436;4.390;2023-04-06T23:48:54;9.73;;;7.60;;
21158;SDS011;10737;45.436;4.390;2023-04-06T23:53:57;8.55;;;7.45;;
21158;SDS011;10737;45.436;4.390;2023-04-06T23:59:01;7.90;;;7.10;;
